sensor_id;sensor_type;location;lat;lon;timestamp;P1;durP1;ratioP1;P2;durP2;ratioP2
8177;SDS011;4130;48.740;9.132;2022-08-19T00:01:54;10.45;;;9.32;;
8177;SDS011;4130;48.740;9.132;2022-08-19T00:04:23;11.23;;;9.63;;
8177;SDS011;4130;48.740;9.132;2022-08-19T00:06:52;13.73;;;9.73;;
8177;SDS011;4130;48.740;9.132;2022-08-19T00:09:20;11.00;;;9.70;;
8177;SDS011;4130;48.740;9.132;2022-08-19T00:11:48;11.98;;;9.85;;
8177;SDS011;4130;48.740;9.132;2022-08-19T00:14:16;11.95;;;10.27;;
8177;SDS011;4130;48.740;9.132;2022-08-19T00:16:45;11.05;;;9.57;;
8177;SDS011;4130;48.740;9.132;2022-08-19T00:19:13;12.15;;;9.77;;
8177;SDS011;4130;48.740;9.132;2022-08-19T00:21:40;12.15;;;10.00;;
8177;SDS011;4130;48.740;9.132;2022-08-19T00:24:08;13.18;;;10.00;;
8177;SDS011;4130;48.740;9.132;2022-08-19T00:26:37;10.82;;;9.65;;
8177;SDS011;4130;48.740;9.132;2022-08-19T00:29:05;10.73;;;9.63;;
8177;SDS011;4130;48.740;9.132;2022-08-19T00:31:34;11.70;;;9.50;;
8177;SDS011;4130;48.740;9.132;2022-08-19T00:34:02;10.00;;;9.00;;
8177;SDS011;4130;48.740;9.132;2022-08-19T00:36:29;11.40;;;9.70;;
8177;SDS011;4130;48.740;9.132;2022-08-19T00:38:57;11.85;;;9.63;;
8177;SDS011;4130;48.740;9.132;2022-08-19T00:41:24;12.63;;;9.40;;
8177;SDS011;4130;48.740;9.132;2022-08-19T00:43:59;12.43;;;9.77;;
8177;SDS011;4130;48.740;9.132;2022-08-19T00:46:27;11.23;;;9.85;;
8177;SDS011;4130;48.740;9.132;2022-08-19T00:48:54;12.30;;;9.95;;
8177;SDS011;4130;48.740;9.132;2022-08-19T00:51:24;12.65;;;10.02;;
8177;SDS011;4130;48.740;9.132;2022-08-19T00:53:52;13.38;;;10.15;;
8177;SDS011;4130;48.740;9.132;2022-08-19T00:56:20;12.68;;;10.00;;
8177;SDS011;4130;48.740;9.132;2022-08-19T00:58:47;12.85;;;10.63;;
8177;SDS011;4130;48.740;9.132;2022-08-19T01:01:14;11.10;;;9.93;;
8177;SDS011;4130;48.740;9.132;2022-08-19T01:03:41;10.63;;;9.40;;
8177;SDS011;4130;48.740;9.132;2022-08-19T01:06:08;11.60;;;10.27;;
8177;SDS011;4130;48.740;9.132;2022-08-19T01:08:36;11.45;;;9.88;;
8177;SDS011;4130;48.740;9.132;2022-08-19T01:11:03;12.77;;;10.13;;
8177;SDS011;4130;48.740;9.132;2022-08-19T01:13:32;13.43;;;10.60;;
8177;SDS011;4130;48.740;9.132;2022-08-19T01:16:00;12.43;;;9.60;;
8177;SDS011;4130;48.740;9.132;2022-08-19T01:18:29;14.13;;;10.82;;
8177;SDS011;4130;48.740;9.132;2022-08-19T01:20:59;11.40;;;9.52;;
8177;SDS011;4130;48.740;9.132;2022-08-19T01:23:32;11.75;;;9.75;;
8177;SDS011;4130;48.740;9.132;2022-08-19T01:26:09;13.70;;;10.43;;
8177;SDS011;4130;48.740;9.132;2022-08-19T01:28:37;12.93;;;10.73;;
8177;SDS011;4130;48.740;9.132;2022-08-19T01:31:04;13.32;;;10.32;;
8177;SDS011;4130;48.740;9.132;2022-08-19T01:33:32;15.63;;;10.57;;
8177;SDS011;4130;48.740;9.132;2022-08-19T01:36:03;12.48;;;10.13;;
8177;SDS011;4130;48.740;9.132;2022-08-19T01:38:34;14.85;;;10.93;;
8177;SDS011;4130;48.740;9.132;2022-08-19T01:41:03;13.93;;;10.98;;
8177;SDS011;4130;48.740;9.132;2022-08-19T01:43:30;13.70;;;9.93;;
8177;SDS011;4130;48.740;9.132;2022-08-19T01:45:57;13.10;;;10.20;;
8177;SDS011;4130;48.740;9.132;2022-08-19T01:48:25;14.95;;;11.68;;
8177;SDS011;4130;48.740;9.132;2022-08-19T01:50:54;14.57;;;11.07;;
8177;SDS011;4130;48.740;9.132;2022-08-19T01:53:21;13.90;;;10.82;;
8177;SDS011;4130;48.740;9.132;2022-08-19T01:55:49;14.50;;;11.50;;
8177;SDS011;4130;48.740;9.132;2022-08-19T01:58:17;16.02;;;10.80;;
8177;SDS011;4130;48.740;9.132;2022-08-19T02:00:46;14.63;;;11.07;;
8177;SDS011;4130;48.740;9.132;2022-08-19T02:03:22;13.95;;;11.32;;
8177;SDS011;4130;48.740;9.132;2022-08-19T02:05:53;13.80;;;11.55;;
8177;SDS011;4130;48.740;9.132;2022-08-19T02:08:21;14.10;;;10.55;;
8177;SDS011;4130;48.740;9.132;2022-08-19T02:10:49;13.20;;;10.93;;
8177;SDS011;4130;48.740;9.132;2022-08-19T02:13:16;13.65;;;11.48;;
8177;SDS011;4130;48.740;9.132;2022-08-19T02:15:43;13.65;;;10.95;;
8177;SDS011;4130;48.740;9.132;2022-08-19T02:18:10;13.35;;;10.88;;
8177;SDS011;4130;48.740;9.132;2022-08-19T02:20:37;16.23;;;12.27;;
8177;SDS011;4130;48.740;9.132;2022-08-19T02:23:05;14.07;;;11.48;;
8177;SDS011;4130;48.740;9.132;2022-08-19T02:25:33;13.55;;;11.85;;
8177;SDS011;4130;48.740;9.132;2022-08-19T02:28:01;15.82;;;11.40;;
8177;SDS011;4130;48.740;9.132;2022-08-19T02:30:28;16.33;;;11.80;;
8177;SDS011;4130;48.740;9.132;2022-08-19T02:32:55;15.07;;;12.43;;
8177;SDS011;4130;48.740;9.132;2022-08-19T02:35:22;16.70;;;12.23;;
8177;SDS011;4130;48.740;9.132;2022-08-19T02:37:49;14.23;;;11.50;;
8177;SDS011;4130;48.740;9.132;2022-08-19T02:40:34;15.27;;;11.20;;
8177;SDS011;4130;48.740;9.132;2022-08-19T02:43:03;14.45;;;11.90;;
8177;SDS011;4130;48.740;9.132;2022-08-19T02:45:32;16.45;;;12.32;;
8177;SDS011;4130;48.740;9.132;2022-08-19T02:47:59;16.55;;;12.57;;
8177;SDS011;4130;48.740;9.132;2022-08-19T02:50:26;14.65;;;12.13;;
8177;SDS011;4130;48.740;9.132;2022-08-19T02:52:53;18.52;;;12.25;;
8177;SDS011;4130;48.740;9.132;2022-08-19T02:55:20;13.43;;;11.95;;
8177;SDS011;4130;48.740;9.132;2022-08-19T02:57:47;15.27;;;11.82;;
8177;SDS011;4130;48.740;9.132;2022-08-19T03:00:16;16.20;;;12.88;;
8177;SDS011;4130;48.740;9.132;2022-08-19T03:02:43;16.08;;;12.90;;
8177;SDS011;4130;48.740;9.132;2022-08-19T03:05:11;16.88;;;13.30;;
8177;SDS011;4130;48.740;9.132;2022-08-19T03:07:37;14.93;;;12.48;;
8177;SDS011;4130;48.740;9.132;2022-08-19T03:10:05;16.38;;;13.50;;
8177;SDS011;4130;48.740;9.132;2022-08-19T03:12:34;16.10;;;12.73;;
8177;SDS011;4130;48.740;9.132;2022-08-19T03:15:02;16.80;;;13.82;;
8177;SDS011;4130;48.740;9.132;2022-08-19T03:17:32;17.98;;;13.73;;
8177;SDS011;4130;48.740;9.132;2022-08-19T03:19:59;17.27;;;12.93;;
8177;SDS011;4130;48.740;9.132;2022-08-19T03:22:26;18.90;;;14.27;;
8177;SDS011;4130;48.740;9.132;2022-08-19T03:24:53;18.25;;;13.85;;
8177;SDS011;4130;48.740;9.132;2022-08-19T03:27:20;18.20;;;14.65;;
8177;SDS011;4130;48.740;9.132;2022-08-19T03:29:47;17.67;;;13.55;;
8177;SDS011;4130;48.740;9.132;2022-08-19T03:32:14;19.60;;;13.98;;
8177;SDS011;4130;48.740;9.132;2022-08-19T03:34:42;17.13;;;14.18;;
8177;SDS011;4130;48.740;9.132;2022-08-19T03:37:10;19.45;;;14.77;;
8177;SDS011;4130;48.740;9.132;2022-08-19T03:39:38;18.60;;;14.02;;
8177;SDS011;4130;48.740;9.132;2022-08-19T03:42:06;18.50;;;14.68;;
8177;SDS011;4130;48.740;9.132;2022-08-19T03:44:34;17.40;;;13.82;;
8177;SDS011;4130;48.740;9.132;2022-08-19T03:47:02;16.73;;;13.82;;
8177;SDS011;4130;48.740;9.132;2022-08-19T03:49:30;16.98;;;13.18;;
8177;SDS011;4130;48.740;9.132;2022-08-19T03:52:01;16.42;;;13.60;;
8177;SDS011;4130;48.740;9.132;2022-08-19T03:54:32;18.45;;;14.18;;
8177;SDS011;4130;48.740;9.132;2022-08-19T03:56:59;17.05;;;14.07;;
8177;SDS011;4130;48.740;9.132;2022-08-19T03:59:27;17.08;;;13.88;;
8177;SDS011;4130;48.740;9.132;2022-08-19T04:01:56;18.95;;;14.48;;
8177;SDS011;4130;48.740;9.132;2022-08-19T04:04:24;16.73;;;14.45;;
8177;SDS011;4130;48.740;9.132;2022-08-19T04:06:51;20.77;;;14.52;;
8177;SDS011;4130;48.740;9.132;2022-08-19T04:09:19;18.67;;;14.57;;
8177;SDS011;4130;48.740;9.132;2022-08-19T04:11:47;18.60;;;14.38;;
8177;SDS011;4130;48.740;9.132;2022-08-19T04:14:19;18.17;;;14.85;;
8177;SDS011;4130;48.740;9.132;2022-08-19T04:16:49;18.23;;;14.68;;
8177;SDS011;4130;48.740;9.132;2022-08-19T04:19:17;19.10;;;15.27;;
8177;SDS011;4130;48.740;9.132;2022-08-19T04:21:44;20.48;;;16.08;;
8177;SDS011;4130;48.740;9.132;2022-08-19T04:24:13;18.77;;;15.40;;
8177;SDS011;4130;48.740;9.132;2022-08-19T04:26:41;18.88;;;15.15;;
8177;SDS011;4130;48.740;9.132;2022-08-19T04:29:09;19.38;;;15.65;;
8177;SDS011;4130;48.740;9.132;2022-08-19T04:31:38;18.83;;;14.95;;
8177;SDS011;4130;48.740;9.132;2022-08-19T04:34:07;19.73;;;16.00;;
8177;SDS011;4130;48.740;9.132;2022-08-19T04:36:36;20.40;;;15.43;;
8177;SDS011;4130;48.740;9.132;2022-08-19T04:39:08;19.67;;;16.00;;
8177;SDS011;4130;48.740;9.132;2022-08-19T04:41:36;21.23;;;15.75;;
8177;SDS011;4130;48.740;9.132;2022-08-19T04:44:22;20.33;;;15.48;;
8177;SDS011;4130;48.740;9.132;2022-08-19T04:46:50;21.13;;;16.45;;
8177;SDS011;4130;48.740;9.132;2022-08-19T04:49:17;22.48;;;16.15;;
8177;SDS011;4130;48.740;9.132;2022-08-19T04:51:47;19.35;;;15.43;;
8177;SDS011;4130;48.740;9.132;2022-08-19T04:54:14;19.77;;;15.30;;
8177;SDS011;4130;48.740;9.132;2022-08-19T04:56:42;20.35;;;16.02;;
8177;SDS011;4130;48.740;9.132;2022-08-19T04:59:09;20.27;;;15.50;;
8177;SDS011;4130;48.740;9.132;2022-08-19T05:01:38;23.30;;;16.38;;
8177;SDS011;4130;48.740;9.132;2022-08-19T05:04:05;21.63;;;15.80;;
8177;SDS011;4130;48.740;9.132;2022-08-19T05:06:33;18.42;;;14.57;;
8177;SDS011;4130;48.740;9.132;2022-08-19T05:09:01;22.73;;;15.45;;
8177;SDS011;4130;48.740;9.132;2022-08-19T05:11:30;20.30;;;14.73;;
8177;SDS011;4130;48.740;9.132;2022-08-19T05:14:02;19.67;;;14.88;;
8177;SDS011;4130;48.740;9.132;2022-08-19T05:16:29;19.08;;;15.27;;
8177;SDS011;4130;48.740;9.132;2022-08-19T05:18:57;19.05;;;15.25;;
8177;SDS011;4130;48.740;9.132;2022-08-19T05:21:42;21.17;;;17.05;;
8177;SDS011;4130;48.740;9.132;2022-08-19T05:24:27;21.63;;;15.70;;
8177;SDS011;4130;48.740;9.132;2022-08-19T05:26:55;20.58;;;15.40;;
8177;SDS011;4130;48.740;9.132;2022-08-19T05:29:24;20.10;;;14.63;;
8177;SDS011;4130;48.740;9.132;2022-08-19T05:31:52;20.30;;;16.23;;
8177;SDS011;4130;48.740;9.132;2022-08-19T05:34:22;19.40;;;15.80;;
8177;SDS011;4130;48.740;9.132;2022-08-19T05:36:52;20.02;;;15.30;;
8177;SDS011;4130;48.740;9.132;2022-08-19T05:39:21;18.27;;;15.18;;
8177;SDS011;4130;48.740;9.132;2022-08-19T05:41:51;21.52;;;15.48;;
8177;SDS011;4130;48.740;9.132;2022-08-19T05:44:19;18.40;;;14.93;;
8177;SDS011;4130;48.740;9.132;2022-08-19T05:46:47;18.63;;;15.30;;
8177;SDS011;4130;48.740;9.132;2022-08-19T05:49:18;17.33;;;14.85;;
8177;SDS011;4130;48.740;9.132;2022-08-19T05:51:47;32.72;;;17.33;;
8177;SDS011;4130;48.740;9.132;2022-08-19T05:54:15;26.27;;;16.02;;
8177;SDS011;4130;48.740;9.132;2022-08-19T05:56:42;20.92;;;13.95;;
8177;SDS011;4130;48.740;9.132;2022-08-19T05:59:12;19.83;;;15.18;;
8177;SDS011;4130;48.740;9.132;2022-08-19T06:01:41;20.27;;;15.95;;
8177;SDS011;4130;48.740;9.132;2022-08-19T06:04:09;18.00;;;14.30;;
8177;SDS011;4130;48.740;9.132;2022-08-19T06:06:36;17.13;;;14.85;;
8177;SDS011;4130;48.740;9.132;2022-08-19T06:09:05;19.02;;;15.18;;
8177;SDS011;4130;48.740;9.132;2022-08-19T06:11:34;19.27;;;15.52;;
8177;SDS011;4130;48.740;9.132;2022-08-19T06:14:03;19.65;;;15.20;;
8177;SDS011;4130;48.740;9.132;2022-08-19T06:16:33;19.15;;;14.90;;
8177;SDS011;4130;48.740;9.132;2022-08-19T06:19:01;17.05;;;14.85;;
8177;SDS011;4130;48.740;9.132;2022-08-19T06:21:31;20.95;;;15.18;;
8177;SDS011;4130;48.740;9.132;2022-08-19T06:23:58;21.42;;;14.38;;
8177;SDS011;4130;48.740;9.132;2022-08-19T06:26:27;35.90;;;16.55;;
8177;SDS011;4130;48.740;9.132;2022-08-19T06:28:54;29.58;;;15.60;;
8177;SDS011;4130;48.740;9.132;2022-08-19T06:31:22;17.83;;;14.95;;
8177;SDS011;4130;48.740;9.132;2022-08-19T06:33:51;19.48;;;15.05;;
8177;SDS011;4130;48.740;9.132;2022-08-19T06:36:19;18.30;;;14.77;;
8177;SDS011;4130;48.740;9.132;2022-08-19T06:38:46;17.38;;;14.23;;
8177;SDS011;4130;48.740;9.132;2022-08-19T06:41:13;26.67;;;15.05;;
8177;SDS011;4130;48.740;9.132;2022-08-19T06:43:42;19.17;;;14.07;;
8177;SDS011;4130;48.740;9.132;2022-08-19T06:46:09;17.25;;;14.48;;
8177;SDS011;4130;48.740;9.132;2022-08-19T06:48:38;18.13;;;13.77;;
8177;SDS011;4130;48.740;9.132;2022-08-19T06:51:05;21.70;;;15.07;;
8177;SDS011;4130;48.740;9.132;2022-08-19T06:53:32;17.10;;;14.40;;
8177;SDS011;4130;48.740;9.132;2022-08-19T06:55:59;20.08;;;15.38;;
8177;SDS011;4130;48.740;9.132;2022-08-19T06:58:27;19.70;;;14.65;;
8177;SDS011;4130;48.740;9.132;2022-08-19T07:00:58;19.80;;;15.15;;
8177;SDS011;4130;48.740;9.132;2022-08-19T07:03:28;19.63;;;15.60;;
8177;SDS011;4130;48.740;9.132;2022-08-19T07:05:56;17.48;;;15.02;;
8177;SDS011;4130;48.740;9.132;2022-08-19T07:08:24;18.58;;;14.45;;
8177;SDS011;4130;48.740;9.132;2022-08-19T07:10:52;18.83;;;15.02;;
8177;SDS011;4130;48.740;9.132;2022-08-19T07:13:19;17.10;;;15.15;;
8177;SDS011;4130;48.740;9.132;2022-08-19T07:15:47;18.55;;;15.38;;
8177;SDS011;4130;48.740;9.132;2022-08-19T07:18:16;18.80;;;14.82;;
8177;SDS011;4130;48.740;9.132;2022-08-19T07:20:43;32.67;;;15.35;;
8177;SDS011;4130;48.740;9.132;2022-08-19T07:23:10;29.77;;;15.50;;
8177;SDS011;4130;48.740;9.132;2022-08-19T07:25:38;17.55;;;14.65;;
8177;SDS011;4130;48.740;9.132;2022-08-19T07:28:05;20.15;;;14.48;;
8177;SDS011;4130;48.740;9.132;2022-08-19T07:30:35;19.05;;;14.90;;
8177;SDS011;4130;48.740;9.132;2022-08-19T07:33:03;20.65;;;14.77;;
8177;SDS011;4130;48.740;9.132;2022-08-19T07:35:31;17.13;;;14.23;;
8177;SDS011;4130;48.740;9.132;2022-08-19T07:37:58;16.63;;;14.02;;
8177;SDS011;4130;48.740;9.132;2022-08-19T07:40:29;17.60;;;14.05;;
8177;SDS011;4130;48.740;9.132;2022-08-19T07:42:57;16.90;;;14.05;;
8177;SDS011;4130;48.740;9.132;2022-08-19T07:45:27;17.73;;;14.27;;
8177;SDS011;4130;48.740;9.132;2022-08-19T07:47:54;16.98;;;13.68;;
8177;SDS011;4130;48.740;9.132;2022-08-19T07:50:22;19.90;;;13.98;;
8177;SDS011;4130;48.740;9.132;2022-08-19T07:52:51;16.33;;;13.90;;
8177;SDS011;4130;48.740;9.132;2022-08-19T07:55:19;18.70;;;14.30;;
8177;SDS011;4130;48.740;9.132;2022-08-19T07:57:47;15.55;;;13.65;;
8177;SDS011;4130;48.740;9.132;2022-08-19T08:00:14;14.55;;;13.05;;
8177;SDS011;4130;48.740;9.132;2022-08-19T08:02:41;18.08;;;14.27;;
8177;SDS011;4130;48.740;9.132;2022-08-19T08:05:08;16.42;;;13.32;;
8177;SDS011;4130;48.740;9.132;2022-08-19T08:07:56;15.48;;;13.63;;
8177;SDS011;4130;48.740;9.132;2022-08-19T08:10:40;16.75;;;13.77;;
8177;SDS011;4130;48.740;9.132;2022-08-19T08:13:07;18.63;;;13.27;;
8177;SDS011;4130;48.740;9.132;2022-08-19T08:15:34;18.48;;;13.52;;
8177;SDS011;4130;48.740;9.132;2022-08-19T08:18:02;16.98;;;13.93;;
8177;SDS011;4130;48.740;9.132;2022-08-19T08:20:29;15.35;;;12.15;;
8177;SDS011;4130;48.740;9.132;2022-08-19T08:22:57;15.80;;;13.35;;
8177;SDS011;4130;48.740;9.132;2022-08-19T08:25:41;20.65;;;13.18;;
8177;SDS011;4130;48.740;9.132;2022-08-19T08:28:09;16.52;;;13.15;;
8177;SDS011;4130;48.740;9.132;2022-08-19T08:30:36;18.88;;;13.05;;
8177;SDS011;4130;48.740;9.132;2022-08-19T08:33:06;16.75;;;12.27;;
8177;SDS011;4130;48.740;9.132;2022-08-19T08:35:33;17.58;;;13.27;;
8177;SDS011;4130;48.740;9.132;2022-08-19T08:38:01;17.55;;;13.40;;
8177;SDS011;4130;48.740;9.132;2022-08-19T08:40:32;15.57;;;12.93;;
8177;SDS011;4130;48.740;9.132;2022-08-19T08:43:20;16.75;;;12.68;;
8177;SDS011;4130;48.740;9.132;2022-08-19T08:45:52;16.10;;;12.52;;
8177;SDS011;4130;48.740;9.132;2022-08-19T08:48:24;16.83;;;12.88;;
8177;SDS011;4130;48.740;9.132;2022-08-19T08:50:57;15.30;;;12.65;;
8177;SDS011;4130;48.740;9.132;2022-08-19T08:53:28;14.35;;;12.57;;
8177;SDS011;4130;48.740;9.132;2022-08-19T08:55:58;17.40;;;13.57;;
8177;SDS011;4130;48.740;9.132;2022-08-19T08:58:29;15.80;;;12.45;;
8177;SDS011;4130;48.740;9.132;2022-08-19T09:01:08;14.45;;;12.95;;
8177;SDS011;4130;48.740;9.132;2022-08-19T09:03:37;14.40;;;12.65;;
8177;SDS011;4130;48.740;9.132;2022-08-19T09:06:07;17.05;;;13.10;;
8177;SDS011;4130;48.740;9.132;2022-08-19T09:08:45;15.95;;;12.20;;
8177;SDS011;4130;48.740;9.132;2022-08-19T09:11:19;17.42;;;13.48;;
8177;SDS011;4130;48.740;9.132;2022-08-19T09:13:54;16.20;;;12.45;;
8177;SDS011;4130;48.740;9.132;2022-08-19T09:16:28;15.32;;;13.02;;
8177;SDS011;4130;48.740;9.132;2022-08-19T09:18:57;16.75;;;12.60;;
8177;SDS011;4130;48.740;9.132;2022-08-19T09:21:26;25.90;;;13.30;;
8177;SDS011;4130;48.740;9.132;2022-08-19T09:23:55;23.10;;;13.02;;
8177;SDS011;4130;48.740;9.132;2022-08-19T09:26:23;13.52;;;11.55;;
8177;SDS011;4130;48.740;9.132;2022-08-19T09:28:50;13.20;;;11.45;;
8177;SDS011;4130;48.740;9.132;2022-08-19T09:31:20;12.73;;;11.30;;
8177;SDS011;4130;48.740;9.132;2022-08-19T09:33:48;13.98;;;11.75;;
8177;SDS011;4130;48.740;9.132;2022-08-19T09:36:16;16.02;;;12.43;;
8177;SDS011;4130;48.740;9.132;2022-08-19T09:38:45;13.85;;;11.98;;
8177;SDS011;4130;48.740;9.132;2022-08-19T09:41:15;14.43;;;10.77;;
8177;SDS011;4130;48.740;9.132;2022-08-19T09:43:44;15.85;;;11.63;;
8177;SDS011;4130;48.740;9.132;2022-08-19T09:46:12;11.75;;;10.57;;
8177;SDS011;4130;48.740;9.132;2022-08-19T09:48:41;15.82;;;11.05;;
8177;SDS011;4130;48.740;9.132;2022-08-19T09:51:11;12.73;;;11.10;;
8177;SDS011;4130;48.740;9.132;2022-08-19T09:53:41;11.75;;;10.32;;
8177;SDS011;4130;48.740;9.132;2022-08-19T09:56:08;14.32;;;11.10;;
8177;SDS011;4130;48.740;9.132;2022-08-19T09:58:37;11.65;;;10.45;;
8177;SDS011;4130;48.740;9.132;2022-08-19T10:01:04;27.52;;;10.88;;
8177;SDS011;4130;48.740;9.132;2022-08-19T10:03:33;14.77;;;10.25;;
8177;SDS011;4130;48.740;9.132;2022-08-19T10:06:04;17.55;;;11.30;;
8177;SDS011;4130;48.740;9.132;2022-08-19T10:08:34;12.07;;;9.80;;
8177;SDS011;4130;48.740;9.132;2022-08-19T10:11:03;11.18;;;9.25;;
8177;SDS011;4130;48.740;9.132;2022-08-19T10:13:31;12.57;;;9.40;;
8177;SDS011;4130;48.740;9.132;2022-08-19T10:16:04;11.85;;;9.40;;
8177;SDS011;4130;48.740;9.132;2022-08-19T10:18:33;13.25;;;9.80;;
8177;SDS011;4130;48.740;9.132;2022-08-19T10:21:03;11.90;;;9.93;;
8177;SDS011;4130;48.740;9.132;2022-08-19T10:23:34;12.38;;;8.95;;
8177;SDS011;4130;48.740;9.132;2022-08-19T10:26:02;10.48;;;8.93;;
8177;SDS011;4130;48.740;9.132;2022-08-19T10:28:31;11.38;;;8.85;;
8177;SDS011;4130;48.740;9.132;2022-08-19T10:31:04;13.20;;;9.32;;
8177;SDS011;4130;48.740;9.132;2022-08-19T10:33:31;9.77;;;8.13;;
8177;SDS011;4130;48.740;9.132;2022-08-19T10:35:59;9.60;;;8.43;;
8177;SDS011;4130;48.740;9.132;2022-08-19T10:38:27;12.82;;;9.35;;
8177;SDS011;4130;48.740;9.132;2022-08-19T10:40:54;9.77;;;8.65;;
8177;SDS011;4130;48.740;9.132;2022-08-19T10:43:21;11.25;;;9.20;;
8177;SDS011;4130;48.740;9.132;2022-08-19T10:45:51;10.88;;;8.15;;
8177;SDS011;4130;48.740;9.132;2022-08-19T10:48:21;11.10;;;8.95;;
8177;SDS011;4130;48.740;9.132;2022-08-19T10:50:47;12.00;;;9.43;;
8177;SDS011;4130;48.740;9.132;2022-08-19T10:53:31;10.93;;;8.90;;
8177;SDS011;4130;48.740;9.132;2022-08-19T10:55:58;16.48;;;8.88;;
8177;SDS011;4130;48.740;9.132;2022-08-19T10:58:42;10.52;;;7.90;;
8177;SDS011;4130;48.740;9.132;2022-08-19T11:01:09;8.85;;;7.35;;
8177;SDS011;4130;48.740;9.132;2022-08-19T11:03:37;17.98;;;8.40;;
8177;SDS011;4130;48.740;9.132;2022-08-19T11:06:08;8.85;;;7.50;;
8177;SDS011;4130;48.740;9.132;2022-08-19T11:08:35;11.20;;;7.57;;
8177;SDS011;4130;48.740;9.132;2022-08-19T11:11:03;8.93;;;7.15;;
8177;SDS011;4130;48.740;9.132;2022-08-19T11:13:33;8.45;;;7.45;;
8177;SDS011;4130;48.740;9.132;2022-08-19T11:16:03;10.93;;;7.30;;
8177;SDS011;4130;48.740;9.132;2022-08-19T11:18:33;11.40;;;7.20;;
8177;SDS011;4130;48.740;9.132;2022-08-19T11:21:10;10.57;;;7.25;;
8177;SDS011;4130;48.740;9.132;2022-08-19T11:23:39;9.73;;;7.10;;
8177;SDS011;4130;48.740;9.132;2022-08-19T11:26:06;7.22;;;6.47;;
8177;SDS011;4130;48.740;9.132;2022-08-19T11:28:33;8.57;;;6.63;;
8177;SDS011;4130;48.740;9.132;2022-08-19T11:31:00;8.43;;;6.90;;
8177;SDS011;4130;48.740;9.132;2022-08-19T11:33:28;8.90;;;6.63;;
8177;SDS011;4130;48.740;9.132;2022-08-19T11:35:56;9.43;;;6.85;;
8177;SDS011;4130;48.740;9.132;2022-08-19T11:38:26;8.15;;;6.85;;
8177;SDS011;4130;48.740;9.132;2022-08-19T11:40:56;9.48;;;6.93;;
8177;SDS011;4130;48.740;9.132;2022-08-19T11:43:24;7.70;;;6.65;;
8177;SDS011;4130;48.740;9.132;2022-08-19T11:45:52;9.23;;;6.80;;
8177;SDS011;4130;48.740;9.132;2022-08-19T11:48:19;8.82;;;6.85;;
8177;SDS011;4130;48.740;9.132;2022-08-19T11:50:47;10.20;;;6.82;;
8177;SDS011;4130;48.740;9.132;2022-08-19T11:53:14;9.73;;;6.63;;
8177;SDS011;4130;48.740;9.132;2022-08-19T11:55:42;9.00;;;6.32;;
8177;SDS011;4130;48.740;9.132;2022-08-19T11:58:09;7.68;;;6.88;;
8177;SDS011;4130;48.740;9.132;2022-08-19T12:00:37;7.80;;;6.43;;
8177;SDS011;4130;48.740;9.132;2022-08-19T12:03:04;8.80;;;6.28;;
8177;SDS011;4130;48.740;9.132;2022-08-19T12:05:31;7.00;;;6.30;;
8177;SDS011;4130;48.740;9.132;2022-08-19T12:07:58;9.35;;;6.47;;
8177;SDS011;4130;48.740;9.132;2022-08-19T12:10:25;7.13;;;5.97;;
8177;SDS011;4130;48.740;9.132;2022-08-19T12:12:53;6.75;;;6.00;;
8177;SDS011;4130;48.740;9.132;2022-08-19T12:15:20;8.18;;;6.10;;
8177;SDS011;4130;48.740;9.132;2022-08-19T12:17:47;7.75;;;6.10;;
8177;SDS011;4130;48.740;9.132;2022-08-19T12:20:14;6.18;;;5.57;;
8177;SDS011;4130;48.740;9.132;2022-08-19T12:22:42;7.53;;;5.95;;
8177;SDS011;4130;48.740;9.132;2022-08-19T12:25:10;6.53;;;5.50;;
8177;SDS011;4130;48.740;9.132;2022-08-19T12:27:38;6.68;;;5.97;;
8177;SDS011;4130;48.740;9.132;2022-08-19T12:30:07;7.10;;;5.53;;
8177;SDS011;4130;48.740;9.132;2022-08-19T12:32:37;7.78;;;6.38;;
8177;SDS011;4130;48.740;9.132;2022-08-19T12:35:05;5.55;;;5.05;;
8177;SDS011;4130;48.740;9.132;2022-08-19T12:37:33;11.02;;;5.70;;
8177;SDS011;4130;48.740;9.132;2022-08-19T12:40:00;7.40;;;5.78;;
8177;SDS011;4130;48.740;9.132;2022-08-19T12:42:28;7.25;;;5.85;;
8177;SDS011;4130;48.740;9.132;2022-08-19T12:44:55;6.50;;;5.70;;
8177;SDS011;4130;48.740;9.132;2022-08-19T12:47:23;6.50;;;5.90;;
8177;SDS011;4130;48.740;9.132;2022-08-19T12:49:51;6.80;;;5.40;;
8177;SDS011;4130;48.740;9.132;2022-08-19T12:52:18;7.30;;;5.45;;
8177;SDS011;4130;48.740;9.132;2022-08-19T12:54:46;7.68;;;5.78;;
8177;SDS011;4130;48.740;9.132;2022-08-19T12:57:12;6.88;;;5.75;;
8177;SDS011;4130;48.740;9.132;2022-08-19T12:59:40;6.45;;;5.75;;
8177;SDS011;4130;48.740;9.132;2022-08-19T13:02:07;8.48;;;7.47;;
8177;SDS011;4130;48.740;9.132;2022-08-19T13:04:36;9.38;;;8.43;;
8177;SDS011;4130;48.740;9.132;2022-08-19T13:07:05;13.88;;;8.98;;
8177;SDS011;4130;48.740;9.132;2022-08-19T13:09:33;11.20;;;9.35;;
8177;SDS011;4130;48.740;9.132;2022-08-19T13:12:01;11.52;;;10.07;;
8177;SDS011;4130;48.740;9.132;2022-08-19T13:14:28;13.25;;;10.70;;
8177;SDS011;4130;48.740;9.132;2022-08-19T13:16:56;15.95;;;12.38;;
8177;SDS011;4130;48.740;9.132;2022-08-19T13:19:23;13.38;;;11.90;;
8177;SDS011;4130;48.740;9.132;2022-08-19T13:21:52;20.77;;;15.45;;
8177;SDS011;4130;48.740;9.132;2022-08-19T13:24:20;16.33;;;13.82;;
8177;SDS011;4130;48.740;9.132;2022-08-19T13:26:47;18.33;;;13.80;;
8177;SDS011;4130;48.740;9.132;2022-08-19T13:29:14;14.43;;;12.30;;
8177;SDS011;4130;48.740;9.132;2022-08-19T13:31:59;19.55;;;13.65;;
8177;SDS011;4130;48.740;9.132;2022-08-19T13:34:43;15.55;;;13.75;;
8177;SDS011;4130;48.740;9.132;2022-08-19T13:37:12;18.05;;;14.45;;
8177;SDS011;4130;48.740;9.132;2022-08-19T13:39:39;18.08;;;13.85;;
8177;SDS011;4130;48.740;9.132;2022-08-19T13:42:06;16.88;;;14.05;;
8177;SDS011;4130;48.740;9.132;2022-08-19T13:44:35;17.05;;;14.80;;
8177;SDS011;4130;48.740;9.132;2022-08-19T13:47:03;16.42;;;14.63;;
8177;SDS011;4130;48.740;9.132;2022-08-19T13:49:32;17.83;;;14.45;;
8177;SDS011;4130;48.740;9.132;2022-08-19T13:52:00;19.98;;;14.45;;
8177;SDS011;4130;48.740;9.132;2022-08-19T13:54:29;15.70;;;13.38;;
8177;SDS011;4130;48.740;9.132;2022-08-19T13:56:56;23.60;;;15.32;;
8177;SDS011;4130;48.740;9.132;2022-08-19T13:59:22;18.10;;;13.93;;
8177;SDS011;4130;48.740;9.132;2022-08-19T14:01:49;19.30;;;14.55;;
8177;SDS011;4130;48.740;9.132;2022-08-19T14:04:16;17.77;;;15.02;;
8177;SDS011;4130;48.740;9.132;2022-08-19T14:06:43;18.73;;;15.13;;
8177;SDS011;4130;48.740;9.132;2022-08-19T14:09:10;18.77;;;16.10;;
8177;SDS011;4130;48.740;9.132;2022-08-19T14:11:38;17.13;;;15.27;;
8177;SDS011;4130;48.740;9.132;2022-08-19T14:14:05;17.75;;;14.88;;
8177;SDS011;4130;48.740;9.132;2022-08-19T14:16:32;19.42;;;15.10;;
8177;SDS011;4130;48.740;9.132;2022-08-19T14:18:59;17.52;;;14.63;;
8177;SDS011;4130;48.740;9.132;2022-08-19T14:21:25;16.92;;;14.57;;
8177;SDS011;4130;48.740;9.132;2022-08-19T14:23:52;16.88;;;14.50;;
8177;SDS011;4130;48.740;9.132;2022-08-19T14:26:20;18.80;;;13.65;;
8177;SDS011;4130;48.740;9.132;2022-08-19T14:28:49;15.57;;;13.18;;
8177;SDS011;4130;48.740;9.132;2022-08-19T14:31:17;14.43;;;12.82;;
8177;SDS011;4130;48.740;9.132;2022-08-19T14:33:46;16.38;;;13.30;;
8177;SDS011;4130;48.740;9.132;2022-08-19T14:36:13;16.17;;;12.35;;
8177;SDS011;4130;48.740;9.132;2022-08-19T14:38:40;17.20;;;13.15;;
8177;SDS011;4130;48.740;9.132;2022-08-19T14:41:12;14.85;;;13.25;;
8177;SDS011;4130;48.740;9.132;2022-08-19T14:43:42;13.68;;;12.07;;
8177;SDS011;4130;48.740;9.132;2022-08-19T14:46:12;12.40;;;11.10;;
8177;SDS011;4130;48.740;9.132;2022-08-19T14:48:40;13.30;;;11.90;;
8177;SDS011;4130;48.740;9.132;2022-08-19T14:51:07;14.57;;;12.00;;
8177;SDS011;4130;48.740;9.132;2022-08-19T14:53:35;13.82;;;11.27;;
8177;SDS011;4130;48.740;9.132;2022-08-19T14:56:06;12.63;;;10.98;;
8177;SDS011;4130;48.740;9.132;2022-08-19T14:58:35;16.10;;;12.40;;
8177;SDS011;4130;48.740;9.132;2022-08-19T15:01:02;15.50;;;10.48;;
8177;SDS011;4130;48.740;9.132;2022-08-19T15:03:31;12.95;;;11.45;;